createdAt,value
2019-05-11T00:01:22.820Z,15.67
2019-05-11T00:03:51.330Z,15.57
2019-05-11T00:06:19.845Z,15.49
2019-05-11T00:08:48.356Z,15.46
2019-05-11T00:11:17.125Z,15.53
2019-05-11T00:13:45.883Z,15.53
2019-05-11T00:16:14.393Z,15.40
2019-05-11T00:18:42.912Z,15.43
2019-05-11T00:21:11.422Z,15.47
2019-05-11T00:23:39.928Z,15.40
2019-05-11T00:26:08.435Z,15.41
2019-05-11T00:28:36.995Z,15.43
2019-05-11T00:31:05.456Z,15.44
2019-05-11T00:33:33.962Z,15.40
2019-05-11T00:36:02.486Z,15.30
2019-05-11T00:38:30.992Z,15.27
2019-05-11T00:40:59.572Z,15.30
2019-05-11T00:43:28.450Z,15.32
2019-05-11T00:45:56.964Z,15.31
2019-05-11T00:48:25.497Z,15.18
2019-05-11T00:50:54.009Z,15.02
2019-05-11T00:53:22.516Z,14.87
2019-05-11T00:55:51.020Z,14.68
2019-05-11T00:58:19.540Z,14.50
2019-05-11T01:00:48.057Z,14.46
2019-05-11T01:03:16.577Z,14.48
2019-05-11T01:05:48.174Z,14.50
2019-05-11T01:08:16.632Z,14.56
2019-05-11T01:10:45.139Z,14.64
2019-05-11T01:13:13.638Z,14.72
2019-05-11T01:15:42.212Z,14.64
2019-05-11T01:18:10.711Z,14.50
2019-05-11T01:20:39.282Z,14.42
2019-05-11T01:23:07.798Z,14.43
2019-05-11T01:25:36.312Z,14.54
2019-05-11T01:28:04.833Z,14.75
2019-05-11T01:30:33.323Z,14.85
2019-05-11T01:33:01.898Z,14.98
2019-05-11T01:35:30.404Z,15.11
2019-05-11T01:37:58.932Z,15.14
2019-05-11T01:40:27.437Z,15.20
2019-05-11T01:42:55.950Z,15.25
2019-05-11T01:45:24.455Z,15.25
2019-05-11T01:47:52.957Z,15.30
2019-05-11T01:50:21.460Z,15.29
2019-05-11T01:52:49.968Z,15.31
2019-05-11T01:55:18.456Z,15.34
2019-05-11T01:57:47.102Z,15.29
2019-05-11T02:00:15.646Z,15.24
2019-05-11T02:02:44.157Z,15.17
2019-05-11T02:05:31.999Z,14.91
2019-05-11T02:08:01.442Z,14.55
2019-05-11T02:10:30.484Z,14.24
2019-05-11T02:12:59.079Z,14.18
2019-05-11T02:15:27.627Z,14.24
2019-05-11T02:17:56.173Z,14.11
2019-05-11T02:20:24.691Z,14.12
2019-05-11T02:22:53.198Z,14.05
2019-05-11T02:25:21.963Z,13.91
2019-05-11T02:27:50.773Z,13.88
2019-05-11T02:30:20.182Z,13.83
2019-05-11T02:32:48.877Z,13.75
2019-05-11T02:35:17.738Z,13.65
2019-05-11T02:37:46.235Z,13.55
2019-05-11T02:40:14.738Z,13.65
2019-05-11T02:42:43.518Z,13.60
2019-05-11T02:45:12.285Z,13.43
2019-05-11T02:47:40.927Z,13.45
2019-05-11T02:50:09.443Z,13.20
2019-05-11T02:52:37.963Z,13.29
2019-05-11T02:55:06.692Z,13.19
2019-05-11T02:57:35.177Z,13.21
2019-05-11T03:00:04.509Z,13.27
2019-05-11T03:02:32.991Z,13.32
2019-05-11T03:05:01.514Z,13.09
2019-05-11T03:07:30.266Z,13.16
2019-05-11T03:09:58.766Z,13.16
2019-05-11T03:12:27.415Z,12.78
2019-05-11T03:14:55.913Z,12.67
2019-05-11T03:17:28.937Z,12.79
2019-05-11T03:19:58.098Z,12.78
2019-05-11T03:22:26.588Z,12.61
2019-05-11T03:24:55.177Z,12.50
2019-05-11T03:27:23.659Z,12.38
2019-05-11T03:29:52.166Z,12.18
2019-05-11T03:32:20.938Z,12.11
2019-05-11T03:34:49.430Z,12.15
2019-05-11T03:37:18.200Z,12.30
2019-05-11T03:39:46.689Z,12.04
2019-05-11T03:42:15.484Z,11.93
2019-05-11T03:44:44.147Z,11.99
2019-05-11T03:47:12.637Z,11.79
2019-05-11T03:49:41.222Z,11.78
2019-05-11T03:52:10.208Z,11.83
2019-05-11T03:54:38.776Z,11.68
2019-05-11T03:57:07.282Z,11.94
2019-05-11T03:59:35.781Z,12.49
2019-05-11T04:02:04.337Z,12.89
2019-05-11T04:04:32.850Z,13.10
2019-05-11T04:07:01.426Z,13.28
2019-05-11T04:09:30.378Z,13.51
2019-05-11T04:11:59.302Z,13.68
2019-05-11T04:14:27.787Z,13.76
2019-05-11T04:16:56.288Z,13.81
2019-05-11T04:19:24.788Z,13.93
2019-05-11T04:21:53.267Z,13.96
2019-05-11T04:24:21.841Z,14.03
2019-05-11T04:26:50.439Z,14.06
2019-05-11T04:29:19.243Z,14.13
2019-05-11T04:31:47.750Z,14.15
2019-05-11T04:34:16.246Z,14.24
2019-05-11T04:36:44.745Z,14.23
2019-05-11T04:39:13.238Z,13.95
2019-05-11T04:41:41.798Z,13.74
2019-05-11T04:44:10.488Z,13.92
2019-05-11T04:46:38.984Z,14.01
2019-05-11T04:49:07.529Z,14.11
2019-05-11T04:51:36.024Z,14.04
2019-05-11T04:54:04.509Z,14.05
2019-05-11T04:56:33.353Z,13.97
2019-05-11T04:59:01.864Z,13.99
2019-05-11T05:01:30.484Z,13.96
2019-05-11T05:04:13.299Z,14.04
2019-05-11T05:06:29.335Z,13.66
2019-05-11T05:09:03.034Z,13.90
2019-05-11T05:11:30.439Z,14.07
2019-05-11T05:14:02.139Z,14.14
2019-05-11T05:16:31.399Z,14.12
2019-05-11T05:18:58.828Z,14.11
2019-05-11T05:21:27.338Z,14.17
2019-05-11T05:23:55.835Z,14.13
2019-05-11T05:26:24.318Z,14.07
2019-05-11T05:28:52.816Z,14.17
2019-05-11T05:31:21.353Z,14.28
2019-05-11T05:33:50.197Z,14.37
2019-05-11T05:36:18.716Z,14.47
2019-05-11T05:38:47.227Z,14.51
2019-05-11T05:41:15.711Z,14.49
2019-05-11T05:43:44.207Z,14.48
2019-05-11T05:46:12.696Z,14.50
2019-05-11T05:48:41.200Z,14.23
2019-05-11T05:51:09.999Z,13.64
2019-05-11T05:53:38.495Z,13.64
2019-05-11T05:56:07.208Z,13.65
2019-05-11T05:58:35.709Z,14.08
2019-05-11T06:01:04.226Z,14.31
2019-05-11T06:03:32.716Z,14.43
2019-05-11T06:06:01.215Z,14.56
2019-05-11T06:08:29.927Z,14.56
2019-05-11T06:10:58.456Z,14.67
2019-05-11T06:13:44.029Z,14.78
2019-05-11T06:15:57.159Z,14.92
2019-05-11T06:18:25.675Z,15.09
2019-05-11T06:20:54.169Z,15.33
2019-05-11T06:23:22.736Z,15.45
2019-05-11T06:25:51.289Z,15.47
2019-05-11T06:28:19.803Z,15.44
2019-05-11T06:30:48.378Z,15.30
2019-05-11T06:33:16.865Z,15.31
2019-05-11T06:35:45.514Z,15.28
2019-05-11T06:38:14.009Z,15.27
2019-05-11T06:40:42.487Z,15.21
2019-05-11T06:43:10.985Z,15.14
2019-05-11T06:45:39.795Z,14.93
2019-05-11T06:48:08.472Z,14.85
2019-05-11T06:50:36.945Z,14.80
2019-05-11T06:53:05.439Z,14.72
2019-05-11T06:55:33.997Z,14.71
2019-05-11T06:58:02.577Z,14.93
2019-05-11T07:00:31.498Z,14.97
2019-05-11T07:02:59.987Z,14.98
2019-05-11T07:05:28.494Z,15.11
2019-05-11T07:07:56.992Z,15.21
2019-05-11T07:10:25.517Z,15.22
2019-05-11T07:12:54.026Z,15.04
2019-05-11T07:15:22.978Z,15.15
2019-05-11T07:17:51.747Z,15.20
2019-05-11T07:20:20.241Z,15.21
2019-05-11T07:22:48.834Z,15.20
2019-05-11T07:25:17.359Z,15.26
2019-05-11T07:27:45.842Z,14.59
2019-05-11T07:30:14.362Z,13.88
2019-05-11T07:32:42.869Z,14.18
2019-05-11T07:35:11.551Z,14.47
2019-05-11T07:37:40.032Z,14.44
2019-05-11T07:40:09.112Z,14.62
2019-05-11T07:42:38.281Z,13.52
2019-05-11T07:45:08.912Z,13.68
2019-05-11T07:47:38.111Z,14.36
2019-05-11T07:50:08.205Z,14.68
2019-05-11T07:52:37.856Z,14.55
2019-05-11T07:55:08.549Z,14.63
2019-05-11T07:57:39.136Z,14.80
2019-05-11T08:00:08.082Z,14.82
2019-05-11T08:02:38.712Z,14.56
2019-05-11T08:05:08.686Z,14.41
2019-05-11T08:07:37.933Z,14.50
2019-05-11T08:10:08.172Z,14.69
2019-05-11T08:12:39.220Z,14.94
2019-05-11T08:15:12.475Z,14.45
2019-05-11T08:17:38.267Z,14.61
2019-05-11T08:20:08.413Z,14.87
2019-05-11T08:22:37.764Z,15.35
2019-05-11T08:25:09.000Z,15.50
2019-05-11T08:27:37.888Z,15.54
2019-05-11T08:30:08.497Z,15.60
2019-05-11T08:32:38.668Z,15.46
2019-05-11T08:35:08.587Z,15.46
2019-05-11T08:37:38.829Z,15.58
2019-05-11T08:40:07.952Z,15.63
2019-05-11T08:42:37.864Z,15.67
2019-05-11T08:45:18.898Z,15.69
2019-05-11T08:47:37.726Z,15.45
2019-05-11T08:50:08.071Z,15.53
2019-05-11T08:52:38.640Z,15.48
2019-05-11T08:55:08.372Z,15.52
2019-05-11T08:57:38.749Z,15.62
2019-05-11T09:00:08.501Z,15.40
2019-05-11T09:02:38.347Z,15.42
2019-05-11T09:05:08.204Z,15.38
2019-05-11T09:07:38.376Z,15.40
2019-05-11T09:10:08.169Z,15.36
2019-05-11T09:12:38.233Z,15.56
2019-05-11T09:15:08.815Z,15.47
2019-05-11T09:17:38.268Z,15.43
2019-05-11T09:20:08.688Z,15.37
2019-05-11T09:22:38.083Z,15.67
2019-05-11T09:25:08.809Z,15.77
2019-05-11T09:27:37.747Z,16.05
2019-05-11T09:30:08.295Z,16.00
2019-05-11T09:32:38.516Z,15.98
2019-05-11T09:35:08.285Z,16.02
2019-05-11T09:37:38.046Z,15.96
2019-05-11T09:40:07.854Z,15.99
2019-05-11T09:42:38.680Z,16.14
2019-05-11T09:45:08.013Z,16.33
2019-05-11T09:47:38.674Z,16.30
2019-05-11T09:50:08.605Z,16.53
2019-05-11T09:52:38.457Z,16.77
2019-05-11T09:55:08.711Z,16.88
2019-05-11T09:57:38.285Z,17.04
2019-05-11T10:00:08.664Z,16.86
2019-05-11T10:02:38.534Z,16.97
2019-05-11T10:05:08.277Z,17.17
2019-05-11T10:07:38.071Z,17.42
2019-05-11T10:10:09.159Z,17.54
2019-05-11T10:12:38.071Z,17.80
2019-05-11T10:15:08.343Z,17.86
2019-05-11T10:17:38.244Z,18.15
2019-05-11T10:20:09.155Z,18.43
2019-05-11T10:22:38.438Z,18.42
2019-05-11T10:25:08.908Z,18.50
2019-05-11T10:27:38.505Z,18.40
2019-05-11T10:30:08.287Z,18.09
2019-05-11T10:32:37.888Z,18.18
2019-05-11T10:35:07.980Z,17.54
2019-05-11T10:37:38.924Z,17.61
2019-05-11T10:40:09.562Z,17.78
2019-05-11T10:42:37.969Z,17.36
2019-05-11T10:45:08.963Z,17.29
2019-05-11T10:47:38.227Z,16.85
2019-05-11T10:50:08.598Z,16.88
2019-05-11T10:52:38.000Z,16.74
2019-05-11T10:55:08.679Z,16.62
2019-05-11T10:57:38.612Z,16.59
2019-05-11T11:00:08.393Z,16.32
2019-05-11T11:02:38.429Z,15.98
2019-05-11T11:05:08.105Z,16.06
2019-05-11T11:07:38.400Z,16.12
2019-05-11T11:10:08.792Z,16.34
2019-05-11T11:12:38.496Z,16.38
2019-05-11T11:15:07.781Z,16.61
2019-05-11T11:17:38.200Z,16.17
2019-05-11T11:20:08.603Z,16.04
2019-05-11T11:22:42.752Z,15.82
2019-05-11T11:25:07.832Z,15.80
2019-05-11T11:27:38.077Z,15.88
2019-05-11T11:30:08.936Z,15.59
2019-05-11T11:32:38.314Z,15.36
2019-05-11T11:35:08.538Z,15.15
2019-05-11T11:37:38.640Z,15.14
2019-05-11T11:40:08.339Z,15.07
2019-05-11T11:42:37.778Z,14.99
2019-05-11T11:45:08.020Z,14.91
2019-05-11T11:47:38.415Z,15.13
2019-05-11T11:50:09.111Z,15.30
2019-05-11T11:52:38.292Z,14.88
2019-05-11T11:55:08.273Z,14.78
2019-05-11T11:57:38.013Z,14.58
2019-05-11T12:00:09.066Z,14.56
2019-05-11T12:02:38.824Z,14.59
2019-05-11T12:05:08.941Z,14.78
2019-05-11T12:07:38.654Z,14.99
2019-05-11T12:10:07.935Z,15.01
2019-05-11T12:12:38.716Z,14.97
2019-05-11T12:15:08.796Z,15.28
2019-05-11T12:17:37.812Z,15.33
2019-05-11T12:20:08.750Z,15.33
2019-05-11T12:22:38.602Z,15.69
2019-05-11T12:25:08.053Z,15.61
2019-05-11T12:27:38.402Z,15.43
2019-05-11T12:30:08.929Z,15.39
2019-05-11T12:32:42.662Z,15.17
2019-05-11T12:35:11.257Z,15.02
2019-05-11T12:37:40.009Z,14.99
2019-05-11T12:40:08.730Z,15.10
2019-05-11T12:42:38.093Z,14.98
2019-05-11T12:45:07.596Z,14.96
2019-05-11T12:47:38.372Z,15.00
2019-05-11T12:50:08.026Z,14.74
2019-05-11T12:52:38.281Z,14.79
2019-05-11T12:55:08.677Z,14.80
2019-05-11T12:57:38.631Z,14.49
2019-05-11T13:00:08.763Z,14.57
2019-05-11T13:02:38.761Z,14.66
2019-05-11T13:05:08.666Z,14.79
2019-05-11T13:07:39.221Z,15.06
2019-05-11T13:10:08.487Z,15.16
2019-05-11T13:12:38.555Z,15.28
2019-05-11T13:15:08.299Z,15.02
2019-05-11T13:17:40.162Z,15.01
2019-05-11T13:20:08.655Z,15.11
2019-05-11T13:22:38.239Z,15.16
2019-05-11T13:25:08.537Z,15.26
2019-05-11T13:27:38.746Z,14.87
2019-05-11T13:30:08.063Z,14.96
2019-05-11T13:32:38.542Z,15.11
2019-05-11T13:35:09.166Z,15.11
2019-05-11T13:37:38.655Z,14.93
2019-05-11T13:40:08.723Z,14.95
2019-05-11T13:42:38.613Z,14.83
2019-05-11T13:45:08.526Z,14.67
2019-05-11T13:47:50.920Z,14.54
2019-05-11T13:50:08.455Z,14.51
2019-05-11T13:52:38.603Z,14.53
2019-05-11T13:55:07.854Z,14.50
2019-05-11T13:57:38.082Z,14.38
2019-05-11T14:00:08.402Z,14.54
2019-05-11T14:02:37.961Z,14.80
2019-05-11T14:05:08.783Z,14.91
2019-05-11T14:07:38.176Z,14.83
2019-05-11T14:10:08.035Z,14.99
2019-05-11T14:12:38.593Z,14.99
2019-05-11T14:15:08.528Z,14.98
2019-05-11T14:17:37.999Z,14.54
2019-05-11T14:20:08.817Z,14.61
2019-05-11T14:22:38.614Z,14.64
2019-05-11T14:25:08.066Z,14.59
2019-05-11T14:27:39.083Z,14.49
2019-05-11T14:30:08.553Z,14.61
2019-05-11T14:32:38.940Z,14.39
2019-05-11T14:35:12.147Z,14.47
2019-05-11T14:37:38.286Z,14.42
2019-05-11T14:40:08.746Z,14.58
2019-05-11T14:42:38.146Z,14.77
2019-05-11T14:45:08.442Z,14.44
2019-05-11T14:47:38.621Z,14.54
2019-05-11T14:50:08.598Z,14.47
2019-05-11T14:52:38.785Z,14.43
2019-05-11T14:55:08.288Z,14.39
2019-05-11T14:57:39.389Z,14.11
2019-05-11T15:00:08.326Z,14.13
2019-05-11T15:02:48.871Z,14.27
2019-05-11T15:05:18.227Z,14.19
2019-05-11T15:07:47.944Z,14.44
2019-05-11T15:10:18.793Z,14.71
2019-05-11T15:12:48.819Z,14.77
2019-05-11T15:15:18.724Z,14.88
2019-05-11T15:17:49.300Z,15.06
2019-05-11T15:20:18.501Z,15.12
2019-05-11T15:22:48.873Z,15.36
2019-05-11T15:25:19.447Z,15.53
2019-05-11T15:27:48.917Z,15.45
2019-05-11T15:30:18.225Z,15.44
2019-05-11T15:32:48.235Z,15.72
2019-05-11T15:35:18.647Z,15.46
2019-05-11T15:37:48.123Z,15.61
2019-05-11T15:40:18.802Z,15.64
2019-05-11T15:42:48.646Z,15.47
2019-05-11T15:45:19.881Z,15.85
2019-05-11T15:47:48.927Z,15.80
2019-05-11T15:50:18.967Z,15.72
2019-05-11T15:52:48.780Z,15.39
2019-05-11T15:55:18.882Z,15.13
2019-05-11T15:57:48.377Z,15.06
2019-05-11T16:00:16.994Z,14.92
2019-05-11T16:02:45.564Z,15.15
2019-05-11T16:05:14.182Z,15.29
2019-05-11T16:07:43.131Z,15.23
2019-05-11T16:10:12.001Z,15.38
2019-05-11T16:12:40.495Z,15.42
2019-05-11T16:15:09.029Z,15.48
2019-05-11T16:17:40.113Z,15.49
2019-05-11T16:20:08.784Z,15.60
2019-05-11T16:22:38.526Z,15.90
2019-05-11T16:25:08.667Z,16.11
2019-05-11T16:27:37.994Z,16.08
2019-05-11T16:30:06.998Z,16.05
2019-05-11T16:32:35.494Z,16.24
2019-05-11T16:35:04.788Z,16.18
2019-05-11T16:37:33.288Z,16.31
2019-05-11T16:40:02.469Z,16.29
2019-05-11T16:42:30.991Z,16.02
2019-05-11T16:44:59.774Z,16.18
2019-05-11T16:47:28.590Z,16.01
2019-05-11T16:49:58.007Z,15.89
2019-05-11T16:52:28.021Z,15.94
2019-05-11T16:54:58.350Z,15.98
2019-05-11T16:57:26.933Z,15.85
2019-05-11T16:59:55.489Z,16.06
2019-05-11T17:02:24.014Z,16.16
2019-05-11T17:04:52.602Z,16.34
2019-05-11T17:07:21.113Z,16.32
2019-05-11T17:09:49.835Z,16.29
2019-05-11T17:12:18.374Z,16.01
2019-05-11T17:14:58.426Z,15.91
2019-05-11T17:17:27.849Z,15.85
2019-05-11T17:19:58.886Z,15.46
2019-05-11T17:22:28.209Z,15.33
2019-05-11T17:24:58.958Z,15.68
2019-05-11T17:27:28.540Z,15.85
2019-05-11T17:29:59.326Z,15.58
2019-05-11T17:32:29.364Z,15.59
2019-05-11T17:34:58.341Z,15.70
2019-05-11T17:37:28.600Z,15.72
2019-05-11T17:39:58.632Z,15.75
2019-05-11T17:42:27.233Z,15.78
2019-05-11T17:44:55.830Z,15.65
2019-05-11T17:47:24.397Z,15.62
2019-05-11T17:50:00.082Z,15.65
2019-05-11T17:52:23.139Z,15.48
2019-05-11T17:54:55.044Z,15.29
2019-05-11T17:57:21.900Z,15.35
2019-05-11T17:59:50.418Z,15.36
2019-05-11T18:02:18.924Z,15.46
2019-05-11T18:04:49.357Z,15.27
2019-05-11T18:07:27.592Z,15.32
2019-05-11T18:09:48.892Z,15.36
2019-05-11T18:12:17.752Z,15.42
2019-05-11T18:14:48.290Z,15.35
2019-05-11T18:17:17.900Z,15.41
2019-05-11T18:19:46.587Z,15.29
2019-05-11T18:22:15.096Z,15.13
2019-05-11T18:24:43.837Z,15.18
2019-05-11T18:27:12.635Z,15.20
2019-05-11T18:29:41.158Z,15.12
2019-05-11T18:32:09.669Z,14.79
2019-05-11T18:34:38.477Z,14.83
2019-05-11T18:37:08.803Z,14.72
2019-05-11T18:39:37.873Z,14.65
2019-05-11T18:42:08.278Z,14.55
2019-05-11T18:44:37.954Z,14.50
2019-05-11T18:47:08.686Z,14.45
2019-05-11T18:49:38.108Z,14.39
2019-05-11T18:52:08.240Z,14.37
2019-05-11T18:54:38.471Z,14.27
2019-05-11T18:57:08.143Z,14.23
2019-05-11T18:59:37.881Z,14.11
2019-05-11T19:02:08.423Z,13.94
2019-05-11T19:04:38.175Z,14.00
2019-05-11T19:07:16.242Z,14.04
2019-05-11T19:09:37.961Z,14.02
2019-05-11T19:12:08.545Z,13.83
2019-05-11T19:14:38.545Z,13.83
2019-05-11T19:17:07.817Z,13.73
2019-05-11T19:19:38.019Z,13.66
2019-05-11T19:22:08.839Z,13.70
2019-05-11T19:24:38.280Z,13.55
2019-05-11T19:27:08.116Z,13.62
2019-05-11T19:29:37.887Z,13.48
2019-05-11T19:32:08.286Z,13.47
2019-05-11T19:34:38.857Z,13.34
2019-05-11T19:37:08.664Z,13.30
2019-05-11T19:39:38.438Z,13.33
2019-05-11T19:42:07.832Z,13.31
2019-05-11T19:44:38.444Z,13.14
2019-05-11T19:47:08.939Z,13.07
2019-05-11T19:49:38.436Z,13.03
2019-05-11T19:52:08.602Z,12.99
2019-05-11T19:54:38.253Z,12.89
2019-05-11T19:57:08.364Z,12.83
2019-05-11T19:59:38.692Z,12.93
2019-05-11T20:02:08.390Z,12.98
2019-05-11T20:04:38.715Z,12.88
2019-05-11T20:07:08.729Z,12.99
2019-05-11T20:09:38.700Z,12.99
2019-05-11T20:12:07.757Z,13.04
2019-05-11T20:14:37.876Z,13.04
2019-05-11T20:17:08.785Z,13.02
2019-05-11T20:19:38.468Z,13.04
2019-05-11T20:22:06.993Z,13.01
2019-05-11T20:24:35.506Z,12.99
2019-05-11T20:27:03.996Z,12.93
2019-05-11T20:29:32.514Z,12.89
2019-05-11T20:32:01.019Z,12.86
2019-05-11T20:34:29.680Z,12.81
2019-05-11T20:36:58.734Z,12.76
2019-05-11T20:39:28.696Z,12.73
2019-05-11T20:41:58.150Z,12.71
2019-05-11T20:44:28.683Z,12.68
2019-05-11T20:46:58.061Z,12.66
2019-05-11T20:49:28.247Z,12.53
2019-05-11T20:51:58.003Z,12.50
2019-05-11T20:54:28.176Z,12.47
2019-05-11T20:56:58.437Z,12.44
2019-05-11T20:59:28.962Z,12.44
2019-05-11T21:01:58.619Z,12.40
2019-05-11T21:04:28.254Z,12.32
2019-05-11T21:06:57.966Z,12.31
2019-05-11T21:09:28.779Z,12.28
2019-05-11T21:11:58.881Z,12.25
2019-05-11T21:14:28.849Z,12.24
2019-05-11T21:16:58.637Z,12.22
2019-05-11T21:19:28.320Z,12.17
2019-05-11T21:21:59.005Z,12.11
2019-05-11T21:24:28.127Z,12.09
2019-05-11T21:26:58.465Z,12.11
2019-05-11T21:29:28.259Z,12.04
2019-05-11T21:31:58.901Z,12.03
2019-05-11T21:34:28.096Z,12.04
2019-05-11T21:36:57.077Z,12.04
2019-05-11T21:39:28.508Z,12.02
2019-05-11T21:41:58.246Z,12.00
2019-05-11T21:44:27.817Z,12.00
2019-05-11T21:46:56.557Z,11.96
2019-05-11T21:49:25.112Z,11.98
2019-05-11T21:52:03.896Z,11.98
2019-05-11T21:54:24.041Z,11.98
2019-05-11T21:56:52.630Z,11.82
2019-05-11T21:59:21.126Z,11.59
2019-05-11T22:01:49.976Z,11.53
2019-05-11T22:04:19.194Z,11.40
2019-05-11T22:06:48.432Z,11.38
2019-05-11T22:09:18.586Z,11.32
2019-05-11T22:11:48.689Z,11.24
2019-05-11T22:14:17.271Z,11.21
2019-05-11T22:16:47.849Z,11.28
2019-05-11T22:19:17.782Z,11.35
2019-05-11T22:21:49.422Z,11.40
2019-05-11T22:24:17.935Z,11.41
2019-05-11T22:26:46.531Z,11.44
2019-05-11T22:29:15.038Z,11.45
2019-05-11T22:31:43.531Z,11.43
2019-05-11T22:34:12.022Z,11.42
2019-05-11T22:36:40.514Z,11.40
2019-05-11T22:39:09.008Z,11.38
2019-05-11T22:41:39.644Z,11.36
2019-05-11T22:44:10.699Z,11.33
2019-05-11T22:46:38.514Z,11.31
2019-05-11T22:49:08.459Z,11.28
2019-05-11T22:51:37.184Z,11.22
2019-05-11T22:54:08.154Z,11.08
2019-05-11T22:56:38.056Z,10.95
2019-05-11T22:59:08.353Z,10.96
2019-05-11T23:01:37.833Z,10.93
2019-05-11T23:04:06.684Z,10.93
2019-05-11T23:06:35.182Z,10.97
2019-05-11T23:09:03.878Z,11.02
2019-05-11T23:11:32.389Z,11.09
2019-05-11T23:14:00.889Z,11.19
2019-05-11T23:16:29.431Z,11.20
2019-05-11T23:18:58.179Z,11.19
2019-05-11T23:21:29.962Z,11.11
2019-05-11T23:23:58.352Z,11.05
2019-05-11T23:26:28.209Z,11.22
2019-05-11T23:28:57.981Z,11.13
2019-05-11T23:31:27.837Z,11.20
2019-05-11T23:33:57.900Z,11.27
2019-05-11T23:36:27.933Z,11.28
2019-05-11T23:38:58.582Z,11.25
2019-05-11T23:41:28.805Z,11.16
2019-05-11T23:43:58.323Z,11.24
2019-05-11T23:46:28.491Z,11.37
2019-05-11T23:48:58.139Z,11.41
2019-05-11T23:51:28.261Z,11.40
2019-05-11T23:53:58.897Z,11.43
2019-05-11T23:56:28.164Z,11.32
2019-05-11T23:58:57.866Z,11.37
